TENO2: Tenkiller Lake

Data processed at Sat Nov 10 2018 23:32


All information presented herein is the property of the government of the United States of America and may be revised or deleted at any time without prior notice.
Dissemination of this information without the expressed written consent of the Public Affairs Office, Tulsa District U.S. Army Corps of Engineers is strictly prohibited.
These data are gathered electronically and, as presented, have not undergone any form of quality control. These data are not guaranteed to be valid or correct.
Go to home page.
Go to station list.
Go to home page.

Upstream stations:

Downstream station:
Previous Day
Next Day
Current Day
    
SHEF ID:       TENO2     Tenkiller Lake
STATION TYPE:  Reservoir
Normal Pool:  Bottom =   594.50, Top =   632.00

               PRECIP PRECIP(A) ELEVATION   STORAGE   TW-ELEV    INFLOW   RELEASE  AIR-TEMP  WIND-DIRWIND-SPEED REL-HUMID SOLAR-RAD   VOLTAGE  BAT-LOAD
                   in        in        ft     ac-ft        ft       cfs       cfs         F       deg       mph         %      W/m2      volt      volt
              Ccp-Rev   Ccp-Rev   Ccp-Rev   Ccp-Rev   Ccp-Rev  Regi-Rev  Regi-Rev   Ccp-Rev   Ccp-Rev   Ccp-Rev   Ccp-Rev   Ccp-Rev   Ccp-Rev   Ccp-Rev
(US/Central)
11/10 00:00      0.00      ----    629.42    635552    481.93        21        40     29.41    216.60      3.80     41.55      0.00     13.63     12.90
11/10 01:00      0.00      ----    629.43    635676    481.91      -901      -901     28.29    222.10      3.60     42.88      0.00     13.63     12.90
11/10 02:00      0.00      ----    629.44    635799    481.90      -901      -901     26.73    229.70      3.40     40.24      0.00     13.63     12.90
11/10 03:00      0.00      ----    629.45    635923    481.90      -901      -901     26.74    211.70      3.10     47.59      0.00     13.63     12.90
11/10 04:00      0.00      ----    629.45    635923    481.90      -901      -901     25.99    209.60      3.30     45.54      0.00     13.63     12.90
11/10 05:00      0.00      ----    629.45    635923    481.90      -901      -901     25.41    204.00      3.10     53.28      0.00     13.62     12.90
11/10 06:00      0.00      ----    629.44    635799    481.90      -901      -901     24.93    132.80      6.80     52.33      0.00     13.63     12.90
11/10 07:00      0.00      ----    629.45    635923    481.90      -901      -901     23.41    143.70      4.70     47.41      0.00     13.63     12.90
11/10 08:00      0.00      ----    629.45    635923    481.89      -901      -901     22.71    145.60      1.40     44.86     45.50     13.62     12.90
11/10 09:00      0.00      ----    629.44    635799    481.88      -901      -901     26.46    105.50      2.20     42.15    203.70     13.62     12.90
11/10 10:00      0.00      ----    629.45    635923    481.88      -901      -901     29.70    125.90      3.50     38.53    459.00     13.62     12.90
11/10 11:00      0.00      ----    629.45    635923    481.88      -901      -901     32.90    136.10      3.70     30.93    584.70     13.62     12.90
11/10 12:00      0.00      ----    629.46    636047    481.88      -901      -901     36.57    122.80      3.60     26.26    648.40     13.62     12.90
11/10 13:00      0.00      ----    629.45    635923    481.88      -901      -901     39.58    126.70      3.50     23.52    389.10     13.62     12.90
11/10 14:00      0.00      ----    629.46    636047    481.88      -901      -901     42.31    130.70      3.70     17.01    527.40     13.62     12.90
11/10 15:00      0.00      ----    629.47    636171    481.88      -901      -901     44.17    128.10      3.40     16.70    448.30     13.62     12.90
11/10 16:00      0.00      ----    629.47    636171    481.88      -901      -901     45.21    113.60      4.00     17.65    280.30     13.62     12.90
11/10 17:00      0.00      ----    629.47    636171    481.88      -901      -901     44.44    155.50      2.50     19.36     44.40     13.62     12.93
11/10 18:00      0.00      ----    629.48    636295    481.88      -901      -901     42.76     99.50      1.70     20.91      0.00     13.62     12.90
11/10 19:00      0.00      ----    629.49    636419    481.88      -901      -901     40.64     89.10      2.30     27.60      0.00     13.62     12.90
11/10 20:00      0.00      ----    629.47    636171    481.88      -901      -901     39.96     97.90      2.80     28.23      0.00     13.62     12.90
11/10 21:00      0.00      ----    629.48    636295    481.88      -901      -901     40.05    119.70      3.90     24.28      0.00     13.62     12.90
11/10 22:00      0.00      ----    629.48    636295    481.88      -901      -901     39.63    119.80      3.10     24.50      0.00     13.62     12.89
11/10 23:00      ----      ----      ----      ----      ----      -901      -901     39.54    118.10      2.60     27.51      0.00     13.62     12.90